createdAt,value
2018-07-25T00:00:20.704Z,58.52
2018-07-25T00:02:46.718Z,58.47
2018-07-25T00:05:12.730Z,58.52
2018-07-25T00:07:38.747Z,58.46
2018-07-25T00:10:04.753Z,58.45
2018-07-25T00:12:30.761Z,58.42
2018-07-25T00:14:56.778Z,58.38
2018-07-25T00:17:22.798Z,58.39
2018-07-25T00:19:48.803Z,58.37
2018-07-25T00:22:14.854Z,58.39
2018-07-25T00:24:40.866Z,58.35
2018-07-25T00:27:06.885Z,58.33
2018-07-25T00:29:32.898Z,58.35
2018-07-25T00:31:58.922Z,58.32
2018-07-25T00:34:24.925Z,58.30
2018-07-25T00:36:50.932Z,58.30
2018-07-25T00:39:16.936Z,58.28
2018-07-25T00:41:42.941Z,58.29
2018-07-25T00:44:08.955Z,58.26
2018-07-25T00:46:34.970Z,58.26
2018-07-25T00:49:00.978Z,58.26
2018-07-25T00:51:26.990Z,58.25
2018-07-25T00:53:53.002Z,58.26
2018-07-25T00:56:19.018Z,58.25
2018-07-25T00:58:45.031Z,58.23
2018-07-25T01:01:11.042Z,58.22
2018-07-25T01:03:37.057Z,58.21
2018-07-25T01:06:03.067Z,58.19
2018-07-25T01:08:29.085Z,58.19
2018-07-25T01:10:55.100Z,58.19
2018-07-25T01:13:21.123Z,58.18
2018-07-25T01:15:47.130Z,58.19
2018-07-25T01:18:13.149Z,58.15
2018-07-25T01:20:39.159Z,58.13
2018-07-25T01:23:05.176Z,58.13
2018-07-25T01:25:31.196Z,58.12
2018-07-25T01:27:57.204Z,58.10
2018-07-25T01:30:23.218Z,58.10
2018-07-25T01:32:49.241Z,58.10
2018-07-25T01:35:15.249Z,58.08
2018-07-25T01:37:41.253Z,58.07
2018-07-25T01:40:07.348Z,58.07
2018-07-25T01:42:33.361Z,58.06
2018-07-25T01:44:59.373Z,58.06
2018-07-25T01:47:25.376Z,58.03
2018-07-25T01:49:51.395Z,58.05
2018-07-25T01:52:17.406Z,58.02
2018-07-25T01:54:43.455Z,58.02
2018-07-25T01:57:09.460Z,58.02
2018-07-25T01:59:35.519Z,58.00
2018-07-25T02:02:01.530Z,58.01
2018-07-25T02:04:27.537Z,57.99
2018-07-25T02:06:53.551Z,57.99
2018-07-25T02:09:19.574Z,57.96
2018-07-25T02:11:45.587Z,57.96
2018-07-25T02:14:11.599Z,57.97
2018-07-25T02:16:37.607Z,57.94
2018-07-25T02:19:03.619Z,57.94
2018-07-25T02:21:29.629Z,57.95
2018-07-25T02:23:55.639Z,57.94
2018-07-25T02:26:21.652Z,57.92
2018-07-25T02:28:47.664Z,57.92
2018-07-25T02:31:13.684Z,57.92
2018-07-25T02:33:39.693Z,57.91
2018-07-25T02:36:05.757Z,57.90
2018-07-25T02:38:31.715Z,57.91
2018-07-25T02:40:57.730Z,57.91
2018-07-25T02:43:23.738Z,57.89
2018-07-25T02:45:49.740Z,57.88
2018-07-25T02:48:15.744Z,57.88
2018-07-25T02:50:41.765Z,57.84
2018-07-25T02:53:07.783Z,57.85
2018-07-25T02:55:33.791Z,57.85
2018-07-25T02:57:59.800Z,57.84
2018-07-25T03:00:25.804Z,57.82
2018-07-25T03:02:51.814Z,57.82
2018-07-25T03:05:17.827Z,57.82
2018-07-25T03:07:43.843Z,57.82
2018-07-25T03:10:09.859Z,57.82
2018-07-25T03:12:35.866Z,57.79
2018-07-25T03:15:01.874Z,57.80
2018-07-25T03:17:27.883Z,57.79
2018-07-25T03:19:53.898Z,57.78
2018-07-25T03:22:19.902Z,57.78
2018-07-25T03:24:45.911Z,57.77
2018-07-25T03:27:11.912Z,57.75
2018-07-25T03:29:37.926Z,57.74
2018-07-25T03:32:03.939Z,57.76
2018-07-25T03:34:29.951Z,57.74
2018-07-25T03:36:55.958Z,57.75
2018-07-25T03:39:21.969Z,57.72
2018-07-25T03:41:47.982Z,57.73
2018-07-25T03:44:13.987Z,57.73
2018-07-25T03:46:40.012Z,57.74
2018-07-25T03:49:06.035Z,57.72
2018-07-25T03:51:32.051Z,57.68
2018-07-25T03:53:58.073Z,57.72
2018-07-25T03:56:24.081Z,57.72
2018-07-25T03:58:50.090Z,57.71
2018-07-25T04:01:16.104Z,57.65
2018-07-25T04:03:42.112Z,57.73
2018-07-25T04:06:08.419Z,57.81
2018-07-25T04:08:34.478Z,57.75
2018-07-25T04:11:00.485Z,57.81
2018-07-25T04:13:26.545Z,57.79
2018-07-25T04:15:52.628Z,57.83
2018-07-25T04:18:18.611Z,57.84
2018-07-25T04:20:44.628Z,57.92
2018-07-25T04:23:10.635Z,58.01
2018-07-25T04:25:36.646Z,58.06
2018-07-25T04:28:02.705Z,58.03
2018-07-25T04:30:28.715Z,58.13
2018-07-25T04:32:54.716Z,58.09
2018-07-25T04:35:20.725Z,58.06
2018-07-25T04:37:46.762Z,58.17
2018-07-25T04:40:12.743Z,58.32
2018-07-25T04:42:38.752Z,58.30
2018-07-25T04:45:04.785Z,58.52
2018-07-25T04:47:30.803Z,58.93
2018-07-25T04:49:56.810Z,58.92
2018-07-25T04:52:22.824Z,58.45
2018-07-25T04:54:48.839Z,58.68
2018-07-25T04:57:14.857Z,58.59
2018-07-25T04:59:40.864Z,58.63
2018-07-25T05:02:09.044Z,58.72
2018-07-25T05:04:35.106Z,58.65
2018-07-25T05:07:01.185Z,58.75
2018-07-25T05:09:27.137Z,58.87
2018-07-25T05:11:53.210Z,58.85
2018-07-25T05:14:19.221Z,58.79
2018-07-25T05:16:45.234Z,58.89
2018-07-25T05:19:11.248Z,58.81
2018-07-25T05:21:37.270Z,58.64
2018-07-25T05:24:03.288Z,58.85
2018-07-25T05:26:29.292Z,58.83
2018-07-25T05:28:55.368Z,58.70
2018-07-25T05:31:21.378Z,58.77
2018-07-25T05:33:47.376Z,58.26
2018-07-25T05:36:13.424Z,58.35
2018-07-25T05:38:39.428Z,58.42
2018-07-25T05:41:05.444Z,58.56
2018-07-25T05:43:31.461Z,58.57
2018-07-25T05:45:57.546Z,58.62
2018-07-25T05:48:23.570Z,58.44
2018-07-25T05:50:49.584Z,58.66
2018-07-25T05:53:15.596Z,58.43
2018-07-25T05:55:41.634Z,58.79
2018-07-25T05:58:07.649Z,58.73
2018-07-25T06:00:33.680Z,58.76
2018-07-25T06:02:59.761Z,58.73
2018-07-25T06:05:25.737Z,58.87
2018-07-25T06:07:51.757Z,58.79
2018-07-25T06:10:17.772Z,58.93
2018-07-25T06:12:43.847Z,59.01
2018-07-25T06:15:09.804Z,58.93
2018-07-25T06:17:35.872Z,58.98
2018-07-25T06:20:01.858Z,58.93
2018-07-25T06:22:27.831Z,58.72
2018-07-25T06:24:53.859Z,58.89
2018-07-25T06:27:19.884Z,58.78
2018-07-25T06:29:45.939Z,58.77
2018-07-25T06:32:11.953Z,58.77
2018-07-25T06:34:37.964Z,58.87
2018-07-25T06:37:03.970Z,58.94
2018-07-25T06:39:30.163Z,58.92
2018-07-25T06:41:56.189Z,58.99
2018-07-25T06:44:22.192Z,58.87
2018-07-25T06:46:48.219Z,58.71
2018-07-25T06:49:14.230Z,58.52
2018-07-25T06:51:40.275Z,58.63
2018-07-25T06:54:06.321Z,59.19
2018-07-25T06:56:32.353Z,59.74
2018-07-25T06:58:58.376Z,59.66
2018-07-25T07:01:24.498Z,59.43
2018-07-25T07:03:50.502Z,59.43
2018-07-25T07:06:16.520Z,59.43
2018-07-25T07:08:42.554Z,59.54
2018-07-25T07:11:08.565Z,59.46
2018-07-25T07:13:34.580Z,59.45
2018-07-25T07:16:00.619Z,59.42
2018-07-25T07:18:26.620Z,59.39
2018-07-25T07:20:52.632Z,59.39
2018-07-25T07:23:18.668Z,59.35
2018-07-25T07:25:44.728Z,59.27
2018-07-25T07:28:10.719Z,59.34
2018-07-25T07:30:36.725Z,59.31
2018-07-25T07:33:02.738Z,59.21
2018-07-25T07:35:28.746Z,59.35
2018-07-25T07:37:54.764Z,59.34
2018-07-25T07:40:20.781Z,59.34
2018-07-25T07:42:46.880Z,59.32
2018-07-25T07:45:12.987Z,59.34
2018-07-25T07:47:39.002Z,59.38
2018-07-25T07:50:04.996Z,59.21
2018-07-25T07:52:31.031Z,59.41
2018-07-25T07:54:57.038Z,59.33
2018-07-25T07:57:23.055Z,59.29
2018-07-25T07:59:49.088Z,59.45
2018-07-25T08:02:15.094Z,59.38
2018-07-25T08:04:41.109Z,59.38
2018-07-25T08:07:07.127Z,59.35
2018-07-25T08:09:33.144Z,59.21
2018-07-25T08:11:59.177Z,59.37
2018-07-25T08:14:25.201Z,59.35
2018-07-25T08:16:51.209Z,58.95
2018-07-25T08:19:17.228Z,59.15
2018-07-25T08:21:43.239Z,58.92
2018-07-25T08:24:09.257Z,58.32
2018-07-25T08:26:35.280Z,57.91
2018-07-25T08:29:01.290Z,58.84
2018-07-25T08:31:27.305Z,58.07
2018-07-25T08:33:53.329Z,58.66
2018-07-25T08:36:19.336Z,59.00
2018-07-25T08:38:45.354Z,58.78
2018-07-25T08:41:11.398Z,58.76
2018-07-25T08:43:37.406Z,58.78
2018-07-25T08:46:03.416Z,58.54
2018-07-25T08:48:29.424Z,58.45
2018-07-25T08:50:55.449Z,58.34
2018-07-25T08:53:21.462Z,58.26
2018-07-25T08:55:47.502Z,58.24
2018-07-25T08:58:14.203Z,58.21
2018-07-25T09:00:40.272Z,58.31
2018-07-25T09:03:07.053Z,58.33
2018-07-25T09:05:33.079Z,58.31
2018-07-25T09:07:59.099Z,58.33
2018-07-25T09:10:25.124Z,58.46
2018-07-25T09:12:51.218Z,58.59
2018-07-25T09:15:17.185Z,58.58
2018-07-25T09:17:43.236Z,58.54
2018-07-25T09:20:09.238Z,58.63
2018-07-25T09:22:35.256Z,58.65
2018-07-25T09:25:01.266Z,58.77
2018-07-25T09:27:27.283Z,58.73
2018-07-25T09:29:53.300Z,58.88
2018-07-25T09:32:19.317Z,58.97
2018-07-25T09:34:45.319Z,58.98
2018-07-25T09:37:11.363Z,59.05
2018-07-25T09:39:37.382Z,58.89
2018-07-25T09:42:03.395Z,58.86
2018-07-25T09:44:29.412Z,58.98
2018-07-25T09:49:21.444Z,58.94
2018-07-25T09:51:47.463Z,58.87
2018-07-25T09:54:13.522Z,58.99
2018-07-25T09:56:39.573Z,58.78
2018-07-25T09:59:05.658Z,58.97
2018-07-25T10:01:31.598Z,58.97
2018-07-25T10:03:57.640Z,58.99
2018-07-25T10:06:23.634Z,58.78
2018-07-25T10:08:49.640Z,58.90
2018-07-25T10:11:15.649Z,58.94
2018-07-25T10:13:41.671Z,58.92
2018-07-25T10:16:07.674Z,58.80
2018-07-25T10:18:33.692Z,59.04
2018-07-25T10:20:59.702Z,58.93
2018-07-25T10:23:25.708Z,59.03
2018-07-25T10:25:51.723Z,59.09
2018-07-25T10:28:17.763Z,58.99
2018-07-25T10:30:43.782Z,58.85
2018-07-25T10:33:09.800Z,59.04
2018-07-25T10:35:35.810Z,59.17
2018-07-25T10:38:01.829Z,59.21
2018-07-25T10:40:27.845Z,58.97
2018-07-25T10:42:53.866Z,58.98
2018-07-25T10:45:20.033Z,59.31
2018-07-25T10:47:46.047Z,58.94
2018-07-25T10:50:12.053Z,59.51
2018-07-25T10:52:38.074Z,59.03
2018-07-25T10:55:04.120Z,59.33
2018-07-25T10:57:30.244Z,59.06
2018-07-25T10:59:56.265Z,59.08
2018-07-25T11:02:22.278Z,59.27
2018-07-25T11:04:48.300Z,59.33
2018-07-25T11:07:14.309Z,59.50
2018-07-25T11:09:40.348Z,59.38
2018-07-25T11:12:06.365Z,59.32
2018-07-25T11:14:32.378Z,59.45
2018-07-25T11:16:58.387Z,59.58
2018-07-25T11:19:24.404Z,59.07
2018-07-25T11:21:50.431Z,59.36
2018-07-25T11:24:16.509Z,59.33
2018-07-25T11:26:42.519Z,59.37
2018-07-25T11:29:08.544Z,59.46
2018-07-25T11:31:34.566Z,59.22
2018-07-25T11:34:00.585Z,59.46
2018-07-25T11:36:26.634Z,59.38
2018-07-25T11:38:52.768Z,59.44
2018-07-25T11:41:18.806Z,59.38
2018-07-25T11:43:44.929Z,59.37
2018-07-25T11:46:10.923Z,59.31
2018-07-25T11:48:37.090Z,59.33
2018-07-25T11:51:03.139Z,59.16
2018-07-25T11:53:29.139Z,59.30
2018-07-25T11:55:55.172Z,59.05
2018-07-25T11:58:21.201Z,59.38
2018-07-25T12:00:47.203Z,59.39
2018-07-25T12:03:13.211Z,59.46
2018-07-25T12:05:39.262Z,59.43
2018-07-25T12:08:05.259Z,59.43
2018-07-25T12:10:31.272Z,59.42
2018-07-25T12:12:57.321Z,59.46
2018-07-25T12:15:23.334Z,59.42
2018-07-25T12:17:49.342Z,59.38
2018-07-25T12:20:15.354Z,59.35
2018-07-25T12:22:41.357Z,59.38
2018-07-25T12:25:07.374Z,59.40
2018-07-25T12:27:33.374Z,59.51
2018-07-25T12:29:59.398Z,59.44
2018-07-25T12:32:25.513Z,59.48
2018-07-25T12:34:51.664Z,59.50
2018-07-25T12:37:17.677Z,59.46
2018-07-25T12:39:43.725Z,59.32
2018-07-25T12:42:09.744Z,59.30
2018-07-25T12:44:35.974Z,59.32
2018-07-25T12:47:01.959Z,59.20
2018-07-25T12:49:28.020Z,59.49
2018-07-25T12:51:54.025Z,59.51
2018-07-25T12:54:20.068Z,59.22
2018-07-25T12:56:46.077Z,59.53
2018-07-25T12:59:12.097Z,59.40
2018-07-25T13:01:38.164Z,59.43
2018-07-25T13:04:04.177Z,59.08
2018-07-25T13:06:30.186Z,59.47
2018-07-25T13:08:56.260Z,59.49
2018-07-25T13:11:22.328Z,59.38
2018-07-25T13:13:48.357Z,59.41
2018-07-25T13:16:14.342Z,59.31
2018-07-25T13:18:40.368Z,59.07
2018-07-25T13:21:06.458Z,59.42
2018-07-25T13:23:32.483Z,59.09
2018-07-25T13:25:58.573Z,59.35
2018-07-25T13:28:24.631Z,59.44
2018-07-25T13:30:50.677Z,59.39
2018-07-25T13:33:16.720Z,59.44
2018-07-25T13:35:42.791Z,59.42
2018-07-25T13:38:08.905Z,59.42
2018-07-25T13:40:34.914Z,59.34
2018-07-25T13:43:01.006Z,59.32
2018-07-25T13:45:26.964Z,59.34
2018-07-25T13:47:53.192Z,59.33
2018-07-25T13:50:19.231Z,59.38
2018-07-25T13:52:45.208Z,59.37
2018-07-25T13:55:11.219Z,59.09
2018-07-25T13:57:37.225Z,58.85
2018-07-25T14:00:03.232Z,59.18
2018-07-25T14:02:29.248Z,59.18
2018-07-25T14:04:55.300Z,59.28
2018-07-25T14:07:21.316Z,58.99
2018-07-25T14:09:47.333Z,59.22
2018-07-25T14:12:13.390Z,59.27
2018-07-25T14:14:39.372Z,59.29
2018-07-25T14:17:05.380Z,59.16
2018-07-25T14:19:31.410Z,59.33
2018-07-25T14:21:57.416Z,59.25
2018-07-25T14:24:23.556Z,59.26
2018-07-25T14:26:49.516Z,59.31
2018-07-25T14:29:15.489Z,59.25
2018-07-25T14:31:41.504Z,59.14
2018-07-25T14:34:07.568Z,59.08
2018-07-25T14:36:33.548Z,59.44
2018-07-25T14:38:59.592Z,59.44
2018-07-25T14:41:25.585Z,59.53
2018-07-25T14:43:51.644Z,59.25
2018-07-25T14:46:17.649Z,59.38
2018-07-25T14:48:43.661Z,59.35
2018-07-25T14:51:09.727Z,59.50
2018-07-25T14:53:35.694Z,59.46
2018-07-25T14:58:45.556Z,59.52
2018-07-25T15:01:11.599Z,59.42
2018-07-25T15:03:37.585Z,59.45
2018-07-25T15:06:03.637Z,59.38
2018-07-25T15:08:29.676Z,59.33
2018-07-25T15:10:55.724Z,59.26
2018-07-25T15:13:21.698Z,59.26
2018-07-25T15:15:47.749Z,59.28
2018-07-25T15:18:13.953Z,59.17
2018-07-25T15:20:40.038Z,59.12
2018-07-25T15:23:06.036Z,59.09
2018-07-25T15:25:32.049Z,59.08
2018-07-25T15:27:58.068Z,58.75
2018-07-25T15:30:24.145Z,59.13
2018-07-25T15:32:50.171Z,59.25
2018-07-25T15:35:16.187Z,59.06
2018-07-25T15:37:42.216Z,59.28
2018-07-25T15:40:08.237Z,59.52
2018-07-25T15:42:34.281Z,59.48
2018-07-25T15:45:09.178Z,59.49
2018-07-25T15:47:35.213Z,59.64
2018-07-25T15:50:01.245Z,59.55
2018-07-25T15:52:27.248Z,59.45
2018-07-25T15:54:53.250Z,59.38
2018-07-25T15:57:19.411Z,59.42
2018-07-25T15:59:45.383Z,59.06
2018-07-25T16:02:11.389Z,58.99
2018-07-25T16:04:37.391Z,59.00
2018-07-25T16:07:03.444Z,59.49
2018-07-25T16:09:29.467Z,59.46
2018-07-25T16:11:55.530Z,59.47
2018-07-25T16:14:21.553Z,59.45
2018-07-25T16:16:47.579Z,59.46
2018-07-25T16:19:13.596Z,59.44
2018-07-25T16:21:39.707Z,59.35
2018-07-25T16:24:05.901Z,59.40
2018-07-25T16:26:31.848Z,59.00
2018-07-25T16:28:57.878Z,59.32
2018-07-25T16:31:23.892Z,59.19
2018-07-25T16:33:49.987Z,59.30
2018-07-25T16:36:16.036Z,59.47
2018-07-25T16:38:42.072Z,59.35
2018-07-25T16:41:08.326Z,59.56
2018-07-25T16:43:34.312Z,59.10
2018-07-25T16:46:00.358Z,59.29
2018-07-25T16:48:26.411Z,59.16
2018-07-25T16:50:52.445Z,59.27
2018-07-25T16:53:18.452Z,59.35
2018-07-25T16:55:44.535Z,59.30
2018-07-25T16:58:10.559Z,59.37
2018-07-25T17:00:36.862Z,59.24
2018-07-25T17:03:02.920Z,58.92
2018-07-25T17:05:28.960Z,58.89
2018-07-25T17:07:54.966Z,58.64
2018-07-25T17:10:21.331Z,58.78
2018-07-25T17:12:47.310Z,58.75
2018-07-25T17:15:13.348Z,58.57
2018-07-25T17:17:39.376Z,58.77
2018-07-25T17:20:05.410Z,58.78
2018-07-25T17:22:31.449Z,58.69
2018-07-25T17:24:57.483Z,58.97
2018-07-25T17:27:23.495Z,58.95
2018-07-25T17:29:49.517Z,59.21
2018-07-25T17:32:15.585Z,58.88
2018-07-25T17:34:41.589Z,59.03
2018-07-25T17:37:07.639Z,59.47
2018-07-25T17:39:33.602Z,59.34
2018-07-25T17:41:59.621Z,59.07
2018-07-25T17:44:25.678Z,59.50
2018-07-25T17:46:51.704Z,59.29
2018-07-25T17:49:17.713Z,59.48
2018-07-25T17:51:43.718Z,59.67
2018-07-25T17:54:09.742Z,59.44
2018-07-25T17:56:35.773Z,59.30
2018-07-25T17:59:01.857Z,59.51
2018-07-25T18:01:27.878Z,59.55
2018-07-25T18:03:53.907Z,59.19
2018-07-25T18:06:19.938Z,59.52
2018-07-25T18:08:45.955Z,59.18
2018-07-25T18:11:11.983Z,59.71
2018-07-25T18:13:38.005Z,59.30
2018-07-25T18:16:04.027Z,59.42
2018-07-25T18:18:30.054Z,59.76
2018-07-25T18:20:56.092Z,59.45
2018-07-25T18:23:22.186Z,59.26
2018-07-25T18:25:48.214Z,59.31
2018-07-25T18:28:14.236Z,59.17
2018-07-25T18:30:40.355Z,59.30
2018-07-25T18:33:06.378Z,58.92
2018-07-25T18:35:32.397Z,59.08
2018-07-25T18:37:58.430Z,59.11
2018-07-25T18:40:24.474Z,59.10
2018-07-25T18:42:50.498Z,58.85
2018-07-25T18:45:16.639Z,58.75
2018-07-25T18:47:45.921Z,58.96
2018-07-25T18:50:12.111Z,58.78
2018-07-25T18:52:38.180Z,58.84
2018-07-25T18:55:04.226Z,59.29
2018-07-25T18:57:30.211Z,59.41
2018-07-25T18:59:56.244Z,59.07
2018-07-25T19:02:22.275Z,59.10
2018-07-25T19:04:48.296Z,59.11
2018-07-25T19:07:14.844Z,59.13
2018-07-25T19:09:41.392Z,59.48
2018-07-25T19:12:08.166Z,59.27
2018-07-25T19:14:34.199Z,59.08
2018-07-25T19:17:00.430Z,59.21
2018-07-25T19:19:26.820Z,59.11
2018-07-25T19:21:53.346Z,59.19
2018-07-25T19:24:19.370Z,59.15
2018-07-25T19:26:45.398Z,59.13
2018-07-25T19:29:11.400Z,59.14
2018-07-25T19:31:37.440Z,59.19
2018-07-25T19:34:03.622Z,59.16
2018-07-25T19:36:30.254Z,59.15
2018-07-25T19:38:56.289Z,59.09
2018-07-25T19:41:22.314Z,59.19
2018-07-25T19:43:48.324Z,59.36
2018-07-25T19:46:14.339Z,59.12
2018-07-25T19:48:40.371Z,59.46
2018-07-25T19:51:06.372Z,59.71
2018-07-25T19:53:32.385Z,59.47
2018-07-25T19:55:58.445Z,59.81
2018-07-25T19:58:24.639Z,59.79
2018-07-25T20:00:50.741Z,59.51
2018-07-25T20:03:17.106Z,59.47
2018-07-25T20:05:43.142Z,59.62
2018-07-25T20:08:09.146Z,59.60
2018-07-25T20:10:36.319Z,59.88
2018-07-25T20:13:02.360Z,60.26
2018-07-25T20:15:28.388Z,59.58
2018-07-25T20:17:54.531Z,59.69
2018-07-25T20:20:20.587Z,60.01
2018-07-25T20:22:46.606Z,59.87
2018-07-25T20:25:12.620Z,60.01
2018-07-25T20:27:38.646Z,60.40
2018-07-25T20:30:04.698Z,60.08
2018-07-25T20:32:30.698Z,59.86
2018-07-25T20:34:56.710Z,60.34
2018-07-25T20:37:22.724Z,60.33
2018-07-25T20:39:48.755Z,60.33
2018-07-25T20:42:14.761Z,60.69
2018-07-25T20:44:40.760Z,60.55
2018-07-25T20:47:06.788Z,60.28
2018-07-25T20:49:32.807Z,60.44
2018-07-25T20:51:58.831Z,60.36
2018-07-25T20:54:24.863Z,60.44
2018-07-25T20:56:50.905Z,60.45
2018-07-25T20:59:16.892Z,60.34
2018-07-25T21:01:42.938Z,60.35
2018-07-25T21:04:08.974Z,60.28
2018-07-25T21:06:34.983Z,60.31
2018-07-25T21:09:00.993Z,60.17
2018-07-25T21:11:27.006Z,60.37
2018-07-25T21:13:53.034Z,60.29
2018-07-25T21:16:19.068Z,60.29
2018-07-25T21:18:45.119Z,60.34
2018-07-25T21:21:11.181Z,60.40
2018-07-25T21:23:37.154Z,60.36
2018-07-25T21:26:03.221Z,60.42
2018-07-25T21:28:29.251Z,60.41
2018-07-25T21:30:55.290Z,60.27
2018-07-25T21:33:21.310Z,60.41
2018-07-25T21:35:47.333Z,60.24
2018-07-25T21:38:13.364Z,60.30
2018-07-25T21:40:39.428Z,60.27
2018-07-25T21:43:05.492Z,60.31
2018-07-25T21:45:31.551Z,60.23
2018-07-25T21:47:57.550Z,60.22
2018-07-25T21:50:23.586Z,60.24
2018-07-25T21:52:49.614Z,60.23
2018-07-25T21:55:15.640Z,60.18
2018-07-25T21:57:41.665Z,60.14
2018-07-25T22:00:07.691Z,60.15
2018-07-25T22:02:33.740Z,60.14
2018-07-25T22:04:59.756Z,60.02
2018-07-25T22:07:25.799Z,60.02
2018-07-25T22:09:51.820Z,60.06
2018-07-25T22:12:17.838Z,60.03
2018-07-25T22:14:43.863Z,60.08
2018-07-25T22:17:09.889Z,60.13
2018-07-25T22:19:35.909Z,60.00
2018-07-25T22:22:01.927Z,60.05
2018-07-25T22:24:27.954Z,59.97
2018-07-25T22:26:54.037Z,60.03
2018-07-25T22:29:20.061Z,59.91
2018-07-25T22:31:46.089Z,59.87
2018-07-25T22:34:12.143Z,59.88
2018-07-25T22:36:38.152Z,59.83
2018-07-25T22:39:04.158Z,59.82
2018-07-25T22:41:30.171Z,59.92
2018-07-25T22:43:56.185Z,59.79
2018-07-25T22:46:22.190Z,59.73
2018-07-25T22:48:48.208Z,59.76
2018-07-25T22:51:14.246Z,59.68
2018-07-25T22:53:40.225Z,59.65
2018-07-25T22:56:06.246Z,59.62
2018-07-25T22:58:32.260Z,59.62
2018-07-25T23:00:58.271Z,59.61
2018-07-25T23:03:24.303Z,59.60
2018-07-25T23:05:50.318Z,59.63
2018-07-25T23:08:16.327Z,59.54
2018-07-25T23:10:42.343Z,59.55
2018-07-25T23:13:08.351Z,59.55
2018-07-25T23:15:34.377Z,59.51
2018-07-25T23:18:00.382Z,59.46
2018-07-25T23:20:26.386Z,59.48
2018-07-25T23:22:52.394Z,59.43
2018-07-25T23:25:18.402Z,59.41
2018-07-25T23:27:44.419Z,59.42
2018-07-25T23:30:10.461Z,59.42
2018-07-25T23:32:36.477Z,59.45
2018-07-25T23:35:02.486Z,59.42
2018-07-25T23:37:28.533Z,59.34
2018-07-25T23:39:54.537Z,59.30
2018-07-25T23:42:20.511Z,59.30
2018-07-25T23:44:46.527Z,59.29
2018-07-25T23:47:12.537Z,59.29
2018-07-25T23:49:38.551Z,59.28
2018-07-25T23:52:04.569Z,59.26
2018-07-25T23:54:30.580Z,59.22
2018-07-25T23:56:56.593Z,59.22
2018-07-25T23:59:22.609Z,59.19
